createdAt,value
2018-11-22T00:00:30.512Z,995.82
2018-11-22T00:01:30.599Z,995.80
2018-11-22T00:02:30.686Z,995.85
2018-11-22T00:03:30.774Z,995.81
2018-11-22T00:04:30.862Z,995.81
2018-11-22T00:05:30.949Z,995.85
2018-11-22T00:06:31.036Z,995.86
2018-11-22T00:07:31.125Z,995.80
2018-11-22T00:08:31.211Z,995.83
2018-11-22T00:09:31.299Z,995.78
2018-11-22T00:10:31.387Z,995.81
2018-11-22T00:11:31.474Z,995.80
2018-11-22T00:12:31.553Z,995.79
2018-11-22T00:13:31.636Z,995.81
2018-11-22T00:14:31.722Z,995.80
2018-11-22T00:15:31.809Z,995.78
2018-11-22T00:16:31.900Z,995.77
2018-11-22T00:17:31.987Z,995.79
2018-11-22T00:18:32.075Z,995.83
2018-11-22T00:19:32.159Z,995.82
2018-11-22T00:20:32.246Z,995.84
2018-11-22T00:21:32.333Z,995.83
2018-11-22T00:22:32.419Z,995.83
2018-11-22T00:23:32.505Z,995.80
2018-11-22T00:24:32.592Z,995.81
2018-11-22T00:25:32.678Z,995.81
2018-11-22T00:26:32.767Z,995.85
2018-11-22T00:27:32.855Z,995.82
2018-11-22T00:28:32.941Z,995.86
2018-11-22T00:29:33.029Z,995.82
2018-11-22T00:30:33.119Z,995.86
2018-11-22T00:31:33.206Z,995.86
2018-11-22T00:32:33.297Z,995.88
2018-11-22T00:33:33.388Z,995.85
2018-11-22T00:34:33.475Z,995.88
2018-11-22T00:35:33.561Z,995.85
2018-11-22T00:36:33.648Z,995.79
2018-11-22T00:37:33.732Z,995.87
2018-11-22T00:38:33.820Z,995.82
2018-11-22T00:39:33.906Z,995.86
2018-11-22T00:40:33.996Z,995.90
2018-11-22T00:41:34.084Z,995.90
2018-11-22T00:42:34.171Z,995.88
2018-11-22T00:43:34.263Z,995.91
2018-11-22T00:44:34.353Z,995.88
2018-11-22T00:45:34.439Z,995.86
2018-11-22T00:46:34.525Z,995.88
2018-11-22T00:47:34.635Z,995.87
2018-11-22T00:48:34.722Z,995.89
2018-11-22T00:49:34.814Z,995.89
2018-11-22T00:50:34.898Z,995.91
2018-11-22T00:51:34.989Z,995.93
2018-11-22T00:52:35.071Z,995.93
2018-11-22T00:53:35.160Z,995.95
2018-11-22T00:54:35.252Z,995.95
2018-11-22T00:55:35.339Z,995.95
2018-11-22T00:56:35.425Z,995.98
2018-11-22T00:57:35.511Z,995.99
2018-11-22T00:58:35.601Z,995.99
2018-11-22T00:59:35.691Z,995.97
2018-11-22T01:00:35.777Z,995.99
2018-11-22T01:01:35.867Z,995.98
2018-11-22T01:02:35.951Z,996.03
2018-11-22T01:03:36.038Z,996.01
2018-11-22T01:04:36.128Z,995.99
2018-11-22T01:05:36.221Z,996.05
2018-11-22T01:06:36.302Z,996.01
2018-11-22T01:07:36.391Z,996.04
2018-11-22T01:08:36.473Z,996.01
2018-11-22T01:09:36.561Z,996.03
2018-11-22T01:10:36.644Z,995.99
2018-11-22T01:11:36.731Z,996.01
2018-11-22T01:12:36.814Z,996.00
2018-11-22T01:13:36.910Z,995.98
2018-11-22T01:14:36.995Z,995.99
2018-11-22T01:15:37.090Z,996.00
2018-11-22T01:16:37.173Z,996.06
2018-11-22T01:17:37.262Z,996.04
2018-11-22T01:18:37.334Z,996.01
2018-11-22T01:19:37.434Z,996.06
2018-11-22T01:20:37.523Z,996.01
2018-11-22T01:21:37.611Z,995.97
2018-11-22T01:22:37.700Z,995.99
2018-11-22T01:23:37.783Z,995.95
2018-11-22T01:24:37.873Z,995.93
2018-11-22T01:25:37.956Z,995.96
2018-11-22T01:26:38.042Z,995.95
2018-11-22T01:27:38.130Z,995.94
2018-11-22T01:28:38.216Z,995.96
2018-11-22T01:29:38.306Z,995.91
2018-11-22T01:30:38.392Z,995.96
2018-11-22T01:31:38.478Z,996.00
2018-11-22T01:32:38.564Z,995.96
2018-11-22T01:33:38.651Z,995.96
2018-11-22T01:34:38.740Z,995.99
2018-11-22T01:35:38.828Z,995.96
2018-11-22T01:36:38.919Z,995.98
2018-11-22T01:37:39.009Z,995.94
2018-11-22T01:38:39.095Z,995.93
2018-11-22T01:39:39.188Z,995.93
2018-11-22T01:40:39.267Z,995.96
2018-11-22T01:41:39.355Z,995.95
2018-11-22T01:42:39.446Z,995.90
2018-11-22T01:43:39.533Z,995.93
2018-11-22T01:44:39.622Z,995.95
2018-11-22T01:45:39.707Z,995.95
2018-11-22T01:46:39.795Z,995.94
2018-11-22T01:47:39.884Z,995.94
2018-11-22T01:48:39.969Z,995.90
2018-11-22T01:49:40.058Z,995.90
2018-11-22T01:50:40.146Z,995.83
2018-11-22T01:51:40.232Z,995.85
2018-11-22T01:52:40.322Z,995.88
2018-11-22T01:53:40.410Z,995.88
2018-11-22T01:54:40.499Z,995.87
2018-11-22T01:55:40.584Z,995.82
2018-11-22T01:56:40.672Z,995.85
2018-11-22T01:57:40.758Z,995.91
2018-11-22T01:58:40.849Z,995.91
2018-11-22T01:59:40.932Z,995.84
2018-11-22T02:00:41.021Z,995.91
2018-11-22T02:01:41.104Z,995.91
2018-11-22T02:02:41.192Z,995.89
2018-11-22T02:03:41.279Z,995.90
2018-11-22T02:04:41.371Z,995.88
2018-11-22T02:05:41.460Z,995.94
2018-11-22T02:06:41.545Z,995.95
2018-11-22T02:07:41.631Z,995.94
2018-11-22T02:08:41.720Z,995.94
2018-11-22T02:09:41.807Z,995.88
2018-11-22T02:10:41.894Z,995.87
2018-11-22T02:11:41.983Z,995.91
2018-11-22T02:12:42.079Z,995.95
2018-11-22T02:13:42.165Z,995.90
2018-11-22T02:14:42.255Z,995.92
2018-11-22T02:15:42.342Z,995.89
2018-11-22T02:16:42.427Z,995.90
2018-11-22T02:17:42.529Z,995.94
2018-11-22T02:18:42.606Z,995.89
2018-11-22T02:19:42.693Z,995.94
2018-11-22T02:20:42.792Z,995.92
2018-11-22T02:21:42.857Z,995.91
2018-11-22T02:22:42.952Z,995.92
2018-11-22T02:23:43.034Z,995.88
2018-11-22T02:24:43.121Z,995.91
2018-11-22T02:25:43.222Z,995.91
2018-11-22T02:26:43.309Z,995.85
2018-11-22T02:27:43.395Z,995.85
2018-11-22T02:28:43.481Z,995.85
2018-11-22T02:29:43.569Z,995.82
2018-11-22T02:30:43.660Z,995.81
2018-11-22T02:31:43.744Z,995.81
2018-11-22T02:32:43.831Z,995.82
2018-11-22T02:33:43.921Z,995.86
2018-11-22T02:34:44.007Z,995.81
2018-11-22T02:35:44.096Z,995.80
2018-11-22T02:36:44.181Z,995.82
2018-11-22T02:37:44.268Z,995.86
2018-11-22T02:38:44.358Z,995.82
2018-11-22T02:39:44.444Z,995.87
2018-11-22T02:40:44.535Z,995.88
2018-11-22T02:41:44.621Z,995.84
2018-11-22T02:42:44.710Z,995.84
2018-11-22T02:43:44.799Z,995.89
2018-11-22T02:44:44.880Z,995.87
2018-11-22T02:45:44.967Z,995.87
2018-11-22T02:46:45.052Z,995.88
2018-11-22T02:47:45.237Z,995.87
2018-11-22T02:48:45.205Z,995.89
2018-11-22T02:49:45.294Z,995.86
2018-11-22T02:50:45.384Z,995.85
2018-11-22T02:51:45.471Z,995.86
2018-11-22T02:52:45.560Z,995.86
2018-11-22T02:53:45.644Z,995.90
2018-11-22T02:54:45.731Z,995.86
2018-11-22T02:55:45.821Z,995.87
2018-11-22T02:56:45.911Z,995.92
2018-11-22T02:57:45.993Z,995.90
2018-11-22T02:58:46.084Z,995.87
2018-11-22T02:59:46.170Z,995.87
2018-11-22T03:00:46.256Z,995.88
2018-11-22T03:01:46.343Z,995.87
2018-11-22T03:02:46.432Z,995.88
2018-11-22T03:03:46.521Z,995.90
2018-11-22T03:04:46.609Z,995.91
2018-11-22T03:05:46.696Z,995.84
2018-11-22T03:06:46.786Z,995.89
2018-11-22T03:07:46.873Z,995.87
2018-11-22T03:08:46.961Z,995.92
2018-11-22T03:09:47.054Z,995.88
2018-11-22T03:10:47.139Z,995.88
2018-11-22T03:11:47.225Z,995.89
2018-11-22T03:12:48.248Z,995.91
2018-11-22T03:13:47.399Z,995.92
2018-11-22T03:14:47.487Z,995.89
2018-11-22T03:15:47.574Z,995.85
2018-11-22T03:16:47.661Z,995.83
2018-11-22T03:17:47.750Z,995.85
2018-11-22T03:18:47.836Z,995.83
2018-11-22T03:19:47.925Z,995.88
2018-11-22T03:20:48.030Z,995.85
2018-11-22T03:21:48.117Z,995.88
2018-11-22T03:22:48.205Z,995.89
2018-11-22T03:23:48.294Z,995.89
2018-11-22T03:24:48.380Z,995.89
2018-11-22T03:25:48.470Z,995.88
2018-11-22T03:26:48.562Z,995.93
2018-11-22T03:27:48.650Z,995.91
2018-11-22T03:28:48.736Z,995.91
2018-11-22T03:29:48.826Z,995.91
2018-11-22T03:30:48.913Z,995.91
2018-11-22T03:31:49.000Z,995.87
2018-11-22T03:32:49.089Z,995.88
2018-11-22T03:33:49.173Z,995.85
2018-11-22T03:34:49.257Z,995.84
2018-11-22T03:35:49.340Z,995.86
2018-11-22T03:36:49.434Z,995.85
2018-11-22T03:37:49.520Z,995.90
2018-11-22T03:38:49.615Z,995.86
2018-11-22T03:39:49.698Z,995.91
2018-11-22T03:40:49.778Z,995.89
2018-11-22T03:41:49.870Z,995.86
2018-11-22T03:42:49.951Z,995.90
2018-11-22T03:43:50.041Z,995.87
2018-11-22T03:44:50.130Z,995.90
2018-11-22T03:45:50.210Z,995.91
2018-11-22T03:46:50.300Z,995.89
2018-11-22T03:47:50.387Z,995.90
2018-11-22T03:48:50.473Z,995.94
2018-11-22T03:49:50.595Z,995.89
2018-11-22T03:50:50.648Z,995.90
2018-11-22T03:51:50.741Z,995.91
2018-11-22T03:52:50.829Z,995.89
2018-11-22T03:53:50.916Z,995.86
2018-11-22T03:54:51.003Z,995.89
2018-11-22T03:55:51.089Z,995.88
2018-11-22T03:56:51.174Z,995.88
2018-11-22T03:57:51.263Z,995.90
2018-11-22T03:58:51.351Z,995.91
2018-11-22T03:59:51.437Z,995.93
2018-11-22T04:00:51.529Z,995.93
2018-11-22T04:01:51.612Z,995.93
2018-11-22T04:02:51.703Z,995.89
2018-11-22T04:03:51.791Z,995.89
2018-11-22T04:04:51.878Z,995.90
2018-11-22T04:05:51.970Z,995.87
2018-11-22T04:06:52.059Z,995.85
2018-11-22T04:07:52.147Z,995.84
2018-11-22T04:08:52.237Z,995.83
2018-11-22T04:09:52.316Z,995.85
2018-11-22T04:10:52.416Z,995.85
2018-11-22T04:11:52.503Z,995.87
2018-11-22T04:12:52.591Z,995.87
2018-11-22T04:13:52.677Z,995.86
2018-11-22T04:14:52.766Z,995.89
2018-11-22T04:15:52.853Z,995.93
2018-11-22T04:16:52.937Z,995.93
2018-11-22T04:17:53.026Z,995.90
2018-11-22T04:18:53.111Z,995.90
2018-11-22T04:19:53.205Z,995.89
2018-11-22T04:20:53.321Z,995.87
2018-11-22T04:21:53.390Z,995.87
2018-11-22T04:22:53.479Z,995.85
2018-11-22T04:23:53.562Z,995.89
2018-11-22T04:24:53.641Z,995.86
2018-11-22T04:25:53.740Z,995.87
2018-11-22T04:26:53.824Z,995.86
2018-11-22T04:27:53.917Z,995.84
2018-11-22T04:28:54.002Z,995.86
2018-11-22T04:29:54.084Z,995.87
2018-11-22T04:30:54.169Z,995.89
2018-11-22T04:31:54.258Z,995.90
2018-11-22T04:32:54.344Z,995.88
2018-11-22T04:33:54.432Z,995.90
2018-11-22T04:34:54.522Z,995.91
2018-11-22T04:35:54.609Z,995.90
2018-11-22T04:36:54.723Z,995.90
2018-11-22T04:37:54.812Z,995.86
2018-11-22T04:38:54.899Z,995.86
2018-11-22T04:39:54.988Z,995.89
2018-11-22T04:40:55.075Z,995.92
2018-11-22T04:41:55.164Z,995.87
2018-11-22T04:42:55.262Z,995.86
2018-11-22T04:43:55.331Z,995.88
2018-11-22T04:44:55.427Z,995.88
2018-11-22T04:45:55.507Z,995.87
2018-11-22T04:46:55.594Z,995.90
2018-11-22T04:47:55.682Z,995.96
2018-11-22T04:48:55.770Z,995.93
2018-11-22T04:49:55.864Z,995.94
2018-11-22T04:50:55.948Z,995.95
2018-11-22T04:51:56.033Z,995.92
2018-11-22T04:52:56.122Z,995.93
2018-11-22T04:53:56.213Z,995.93
2018-11-22T04:54:56.303Z,995.93
2018-11-22T04:55:56.410Z,995.99
2018-11-22T04:56:56.468Z,995.97
2018-11-22T04:57:58.087Z,995.95
2018-11-22T04:58:56.640Z,995.95
2018-11-22T04:59:56.728Z,995.95
2018-11-22T05:00:56.816Z,995.96
2018-11-22T05:01:56.899Z,995.97
2018-11-22T05:02:56.995Z,995.96
2018-11-22T05:03:57.081Z,996.02
2018-11-22T05:04:57.171Z,996.00
2018-11-22T05:05:57.256Z,995.99
2018-11-22T05:06:57.345Z,995.99
2018-11-22T05:07:57.433Z,996.00
2018-11-22T05:08:57.521Z,995.95
2018-11-22T05:09:57.608Z,995.98
2018-11-22T05:10:57.693Z,995.99
2018-11-22T05:11:57.782Z,996.04
2018-11-22T05:12:57.869Z,996.02
2018-11-22T05:13:57.961Z,996.04
2018-11-22T05:14:58.045Z,996.01
2018-11-22T05:15:58.133Z,995.99
2018-11-22T05:16:58.219Z,995.98
2018-11-22T05:17:58.309Z,996.01
2018-11-22T05:18:58.393Z,996.02
2018-11-22T05:19:58.483Z,995.99
2018-11-22T05:20:58.571Z,995.98
2018-11-22T05:21:58.651Z,996.00
2018-11-22T05:22:58.739Z,996.01
2018-11-22T05:23:58.831Z,996.03
2018-11-22T05:24:58.918Z,996.01
2018-11-22T05:25:59.009Z,996.03
2018-11-22T05:26:59.090Z,996.02
2018-11-22T05:27:59.179Z,996.01
2018-11-22T05:28:59.259Z,996.03
2018-11-22T05:29:59.348Z,996.01
2018-11-22T05:30:59.441Z,995.98
2018-11-22T05:31:59.527Z,995.99
2018-11-22T05:32:59.616Z,996.01
2018-11-22T05:33:59.702Z,995.99
2018-11-22T05:34:59.809Z,996.00
2018-11-22T05:35:59.901Z,996.00
2018-11-22T05:36:59.989Z,996.03
2018-11-22T05:38:00.075Z,996.04
2018-11-22T05:39:00.160Z,996.03
2018-11-22T05:40:00.246Z,996.03
2018-11-22T05:41:00.330Z,996.00
2018-11-22T05:42:00.440Z,996.01
2018-11-22T05:43:00.498Z,995.99
2018-11-22T05:44:00.583Z,995.97
2018-11-22T05:45:00.672Z,995.98
2018-11-22T05:46:00.766Z,995.99
2018-11-22T05:47:02.727Z,996.00
2018-11-22T05:48:00.937Z,995.99
2018-11-22T05:49:10.686Z,996.01
2018-11-22T05:50:01.153Z,995.97
2018-11-22T05:51:01.261Z,996.02
2018-11-22T05:52:01.349Z,996.03
2018-11-22T05:53:01.444Z,996.01
2018-11-22T05:54:01.526Z,996.05
2018-11-22T05:55:01.680Z,996.01
2018-11-22T05:56:01.718Z,996.01
2018-11-22T05:57:01.809Z,996.00
2018-11-22T05:58:01.898Z,995.97
2018-11-22T05:59:01.989Z,996.02
2018-11-22T06:00:02.078Z,996.03
2018-11-22T06:01:02.163Z,996.00
2018-11-22T06:02:02.252Z,995.99
2018-11-22T06:03:02.343Z,996.00
2018-11-22T06:04:02.420Z,996.00
2018-11-22T06:05:02.512Z,995.99
2018-11-22T06:06:02.599Z,995.97
2018-11-22T06:07:02.686Z,996.02
2018-11-22T06:08:02.778Z,996.02
2018-11-22T06:09:02.864Z,995.97
2018-11-22T06:10:02.953Z,995.96
2018-11-22T06:11:03.041Z,995.99
2018-11-22T06:12:03.130Z,995.96
2018-11-22T06:13:03.226Z,995.95
2018-11-22T06:14:03.318Z,995.93
2018-11-22T06:15:03.403Z,995.98
2018-11-22T06:16:03.508Z,995.94
2018-11-22T06:17:03.600Z,996.00
2018-11-22T06:18:03.681Z,995.98
2018-11-22T06:19:03.773Z,996.00
2018-11-22T06:20:03.857Z,996.02
2018-11-22T06:21:03.948Z,996.00
2018-11-22T06:22:04.037Z,996.01
2018-11-22T06:23:04.128Z,996.02
2018-11-22T06:24:04.214Z,996.04
2018-11-22T06:25:04.316Z,996.03
2018-11-22T06:26:04.404Z,996.02
2018-11-22T06:27:04.490Z,996.02
2018-11-22T06:28:04.576Z,996.01
2018-11-22T06:29:04.659Z,996.03
2018-11-22T06:30:04.751Z,996.05
2018-11-22T06:31:06.432Z,996.04
2018-11-22T06:32:04.929Z,996.06
2018-11-22T06:33:05.011Z,996.04
2018-11-22T06:34:05.099Z,996.01
2018-11-22T06:35:05.183Z,996.04
2018-11-22T06:36:05.291Z,996.07
2018-11-22T06:37:05.380Z,996.05
2018-11-22T06:38:05.489Z,996.08
2018-11-22T06:39:05.554Z,996.07
2018-11-22T06:40:05.643Z,996.08
2018-11-22T06:41:05.731Z,996.05
2018-11-22T06:42:05.820Z,996.09
2018-11-22T06:43:05.903Z,996.11
2018-11-22T06:44:05.989Z,996.08
2018-11-22T06:45:06.078Z,996.13
2018-11-22T06:46:06.165Z,996.13
2018-11-22T06:47:06.270Z,996.12
2018-11-22T06:48:06.357Z,996.18
2018-11-22T06:49:06.446Z,996.16
2018-11-22T06:50:06.533Z,996.19
2018-11-22T06:51:06.623Z,996.16
2018-11-22T06:52:06.710Z,996.18
2018-11-22T06:53:06.796Z,996.17
2018-11-22T06:54:06.889Z,996.20
2018-11-22T06:55:06.968Z,996.21
2018-11-22T06:56:07.058Z,996.20
2018-11-22T06:57:07.188Z,996.21
2018-11-22T06:58:07.275Z,996.25
2018-11-22T06:59:07.362Z,996.28
2018-11-22T07:00:07.454Z,996.26
2018-11-22T07:01:07.542Z,996.25
2018-11-22T07:02:07.630Z,996.24
2018-11-22T07:03:07.716Z,996.26
2018-11-22T07:04:07.803Z,996.24
2018-11-22T07:05:07.903Z,996.21
2018-11-22T07:06:07.980Z,996.23
2018-11-22T07:07:08.066Z,996.25
2018-11-22T07:08:08.154Z,996.24
2018-11-22T07:09:08.240Z,996.27
2018-11-22T07:10:08.332Z,996.25
2018-11-22T07:11:08.415Z,996.23
2018-11-22T07:12:08.522Z,996.24
2018-11-22T07:13:08.609Z,996.22
2018-11-22T07:14:08.696Z,996.22
2018-11-22T07:15:08.783Z,996.20
2018-11-22T07:16:08.873Z,996.22
2018-11-22T07:17:08.956Z,996.22
2018-11-22T07:18:09.044Z,996.19
2018-11-22T07:19:09.131Z,996.23
2018-11-22T07:20:09.219Z,996.27
2018-11-22T07:21:09.309Z,996.25
2018-11-22T07:22:09.397Z,996.27
2018-11-22T07:23:09.482Z,996.25
2018-11-22T07:24:09.571Z,996.31
2018-11-22T07:25:09.659Z,996.31
2018-11-22T07:26:09.745Z,996.31
2018-11-22T07:27:09.836Z,996.31
2018-11-22T07:28:09.923Z,996.35
2018-11-22T07:29:10.012Z,996.35
2018-11-22T07:30:10.099Z,996.33
2018-11-22T07:31:10.191Z,996.32
2018-11-22T07:32:10.278Z,996.39
2018-11-22T07:33:10.363Z,996.37
2018-11-22T07:34:10.456Z,996.34
2018-11-22T07:35:10.539Z,996.33
2018-11-22T07:36:10.626Z,996.39
2018-11-22T07:37:10.714Z,996.38
2018-11-22T07:38:10.802Z,996.39
2018-11-22T07:39:10.888Z,996.34
2018-11-22T07:40:10.980Z,996.38
2018-11-22T07:41:11.065Z,996.37
2018-11-22T07:42:11.155Z,996.40
2018-11-22T07:43:11.242Z,996.39
2018-11-22T07:44:11.331Z,996.39
2018-11-22T07:45:11.419Z,996.38
2018-11-22T07:46:11.510Z,996.36
2018-11-22T07:47:11.596Z,996.36
2018-11-22T07:48:11.682Z,996.36
2018-11-22T07:49:11.769Z,996.37
2018-11-22T07:50:11.855Z,996.37
2018-11-22T07:51:11.946Z,996.38
2018-11-22T07:52:12.031Z,996.35
2018-11-22T07:53:12.118Z,996.38
2018-11-22T07:54:12.205Z,996.37
2018-11-22T07:55:12.306Z,996.43
2018-11-22T07:56:12.393Z,996.37
2018-11-22T07:57:12.480Z,996.43
2018-11-22T07:58:12.567Z,996.37
2018-11-22T07:59:12.656Z,996.39
2018-11-22T08:00:12.741Z,996.35
2018-11-22T08:01:12.830Z,996.36
2018-11-22T08:02:12.920Z,996.38
2018-11-22T08:03:13.002Z,996.36
2018-11-22T08:04:13.100Z,996.35
2018-11-22T08:05:13.180Z,996.39
2018-11-22T08:06:13.268Z,996.39
2018-11-22T08:07:13.358Z,996.35
2018-11-22T08:08:13.444Z,996.38
2018-11-22T08:09:13.585Z,996.36
2018-11-22T08:10:13.674Z,996.38
2018-11-22T08:11:13.763Z,996.40
2018-11-22T08:12:13.854Z,996.36
2018-11-22T08:13:13.939Z,996.41
2018-11-22T08:14:14.049Z,996.39
2018-11-22T08:15:14.136Z,996.43
2018-11-22T08:16:14.225Z,996.44
2018-11-22T08:17:14.310Z,996.44
2018-11-22T08:18:14.399Z,996.48
2018-11-22T08:19:14.484Z,996.46
2018-11-22T08:20:14.573Z,996.48
2018-11-22T08:21:14.660Z,996.43
2018-11-22T08:22:14.748Z,996.46
2018-11-22T08:23:14.839Z,996.46
2018-11-22T08:24:14.926Z,996.46
2018-11-22T08:25:15.015Z,996.48
2018-11-22T08:26:15.103Z,996.50
2018-11-22T08:27:15.188Z,996.48
2018-11-22T08:28:15.275Z,996.50
2018-11-22T08:29:15.363Z,996.52
2018-11-22T08:30:15.456Z,996.49
2018-11-22T08:31:15.540Z,996.47
2018-11-22T08:32:15.626Z,996.44
2018-11-22T08:33:15.707Z,996.45
2018-11-22T08:34:15.801Z,996.44
2018-11-22T08:35:15.888Z,996.49
2018-11-22T08:36:15.975Z,996.45
2018-11-22T08:37:16.063Z,996.49
2018-11-22T08:38:16.150Z,996.51
2018-11-22T08:39:16.237Z,996.50
2018-11-22T08:40:16.326Z,996.51
2018-11-22T08:41:16.414Z,996.52
2018-11-22T08:42:16.507Z,996.54
2018-11-22T08:43:16.593Z,996.54
2018-11-22T08:44:16.674Z,996.52
2018-11-22T08:45:16.764Z,996.50
2018-11-22T08:46:16.851Z,996.49
2018-11-22T08:47:16.955Z,996.51
2018-11-22T08:48:17.039Z,996.57
2018-11-22T08:49:17.126Z,996.51
2018-11-22T08:50:17.214Z,996.55
2018-11-22T08:51:17.302Z,996.55
2018-11-22T08:52:17.402Z,996.57
2018-11-22T08:53:17.493Z,996.56
2018-11-22T08:54:17.566Z,996.55
2018-11-22T08:55:17.652Z,996.60
2018-11-22T08:56:17.741Z,996.55
2018-11-22T08:57:17.837Z,996.56
2018-11-22T08:58:17.919Z,996.55
2018-11-22T08:59:18.010Z,996.53
2018-11-22T09:00:18.099Z,996.55
2018-11-22T09:01:18.181Z,996.56
2018-11-22T09:02:18.270Z,996.52
2018-11-22T09:03:18.361Z,996.53
2018-11-22T09:04:18.447Z,996.55
2018-11-22T09:05:18.535Z,996.56
2018-11-22T09:06:18.624Z,996.57
2018-11-22T09:07:18.712Z,996.60
2018-11-22T09:08:18.799Z,996.58
2018-11-22T09:09:18.889Z,996.61
2018-11-22T09:10:18.975Z,996.57
2018-11-22T09:11:19.062Z,996.59
2018-11-22T09:12:19.150Z,996.60
2018-11-22T09:13:19.237Z,996.62
2018-11-22T09:14:19.327Z,996.61
2018-11-22T09:15:19.414Z,996.63
2018-11-22T09:16:19.503Z,996.66
2018-11-22T09:17:19.593Z,996.65
2018-11-22T09:18:19.682Z,996.64
2018-11-22T09:19:19.770Z,996.64
2018-11-22T09:20:19.860Z,996.68
2018-11-22T09:21:19.949Z,996.65
2018-11-22T09:22:20.038Z,996.61
2018-11-22T09:23:20.127Z,996.62
2018-11-22T09:24:24.189Z,996.63
2018-11-22T09:25:20.307Z,996.59
2018-11-22T09:26:20.393Z,996.60
2018-11-22T09:27:20.486Z,996.64
2018-11-22T09:28:20.574Z,996.60
2018-11-22T09:29:20.661Z,996.65
2018-11-22T09:30:20.751Z,996.65
2018-11-22T09:31:20.834Z,996.65
2018-11-22T09:32:20.927Z,996.64
2018-11-22T09:33:21.013Z,996.68
2018-11-22T09:34:21.099Z,996.66
2018-11-22T09:35:21.267Z,996.67
2018-11-22T09:36:21.279Z,996.69
2018-11-22T09:37:21.362Z,996.71
2018-11-22T09:38:21.449Z,996.69
2018-11-22T09:39:21.537Z,996.69
2018-11-22T09:40:21.624Z,996.71
2018-11-22T09:41:21.712Z,996.70
2018-11-22T09:42:21.909Z,996.76
2018-11-22T09:43:21.897Z,996.79
2018-11-22T09:44:21.978Z,996.78
2018-11-22T09:45:22.068Z,996.74
2018-11-22T09:46:22.154Z,996.75
2018-11-22T09:47:22.243Z,996.77
2018-11-22T09:48:22.333Z,996.79
2018-11-22T09:49:22.418Z,996.75
2018-11-22T09:50:22.507Z,996.76
2018-11-22T09:51:22.600Z,996.75
2018-11-22T09:52:22.688Z,996.81
2018-11-22T09:53:22.776Z,996.80
2018-11-22T09:54:22.863Z,996.83
2018-11-22T09:55:22.948Z,996.84
2018-11-22T09:56:23.030Z,996.83
2018-11-22T09:57:23.117Z,996.84
2018-11-22T09:58:23.205Z,996.83
2018-11-22T09:59:23.293Z,996.80
2018-11-22T10:00:23.381Z,996.82
2018-11-22T10:01:23.489Z,996.83
2018-11-22T10:02:23.578Z,996.79
2018-11-22T10:03:23.665Z,996.80
2018-11-22T10:04:23.754Z,996.79
2018-11-22T10:05:23.896Z,996.79
2018-11-22T10:06:23.930Z,996.77
2018-11-22T10:07:24.020Z,996.85
2018-11-22T10:08:24.142Z,996.84
2018-11-22T10:09:24.282Z,996.80
2018-11-22T10:10:24.282Z,996.80
2018-11-22T10:11:24.374Z,996.78
2018-11-22T10:12:24.475Z,996.77
2018-11-22T10:13:24.551Z,996.82
2018-11-22T10:14:24.640Z,996.77
2018-11-22T10:15:24.724Z,996.81
2018-11-22T10:16:24.813Z,996.80
2018-11-22T10:17:24.899Z,996.78
2018-11-22T10:18:24.992Z,996.74
2018-11-22T10:19:25.074Z,996.75
2018-11-22T10:20:25.158Z,996.80
2018-11-22T10:21:25.240Z,996.82
2018-11-22T10:22:25.350Z,996.77
2018-11-22T10:23:25.414Z,996.79
2018-11-22T10:24:25.591Z,996.78
2018-11-22T10:25:25.594Z,996.80
2018-11-22T10:26:25.686Z,996.77
2018-11-22T10:27:25.771Z,996.82
2018-11-22T10:28:25.860Z,996.81
2018-11-22T10:29:25.969Z,996.81
2018-11-22T10:30:26.128Z,996.82
2018-11-22T10:31:26.168Z,996.80
2018-11-22T10:32:26.215Z,996.81
2018-11-22T10:33:26.302Z,996.81
2018-11-22T10:34:26.389Z,996.80
2018-11-22T10:35:26.596Z,996.82
2018-11-22T10:36:26.566Z,996.82
2018-11-22T10:37:26.656Z,996.81
2018-11-22T10:38:26.860Z,996.84
2018-11-22T10:39:26.852Z,996.83
2018-11-22T10:40:26.939Z,996.80
2018-11-22T10:41:27.025Z,996.79
2018-11-22T10:42:27.152Z,996.79
2018-11-22T10:43:27.208Z,996.82
2018-11-22T10:44:27.300Z,996.81
2018-11-22T10:45:27.384Z,996.78
2018-11-22T10:46:27.473Z,996.77
2018-11-22T10:47:27.561Z,996.77
2018-11-22T10:48:27.650Z,996.80
2018-11-22T10:49:27.740Z,996.85
2018-11-22T10:50:27.830Z,996.84
2018-11-22T10:51:27.915Z,996.81
2018-11-22T10:52:28.002Z,996.82
2018-11-22T10:53:28.091Z,996.83
2018-11-22T10:54:28.177Z,996.81
2018-11-22T10:55:28.268Z,996.74
2018-11-22T10:56:28.355Z,996.76
2018-11-22T10:57:28.444Z,996.76
2018-11-22T10:58:28.533Z,996.77
2018-11-22T10:59:28.622Z,996.69
2018-11-22T11:00:28.709Z,996.70
2018-11-22T11:01:28.798Z,996.68
2018-11-22T11:02:28.886Z,996.71
2018-11-22T11:03:28.977Z,996.72
2018-11-22T11:04:29.063Z,996.70
2018-11-22T11:05:29.151Z,996.69
2018-11-22T11:06:29.246Z,996.67
2018-11-22T11:07:29.338Z,996.72
2018-11-22T11:08:29.424Z,996.68
2018-11-22T11:09:29.519Z,996.65
2018-11-22T11:10:29.607Z,996.65
2018-11-22T11:11:29.699Z,996.62
2018-11-22T11:12:30.279Z,996.68
2018-11-22T11:13:29.875Z,996.65
2018-11-22T11:14:29.962Z,996.67
2018-11-22T11:15:30.052Z,996.65
2018-11-22T11:16:30.139Z,996.66
2018-11-22T11:17:30.230Z,996.68
2018-11-22T11:18:30.931Z,996.65
2018-11-22T11:19:30.406Z,996.65
2018-11-22T11:20:30.494Z,996.68
2018-11-22T11:21:30.582Z,996.67
2018-11-22T11:22:30.669Z,996.64
2018-11-22T11:23:30.755Z,996.71
2018-11-22T11:24:31.059Z,996.68
2018-11-22T11:25:30.933Z,996.63
2018-11-22T11:26:31.024Z,996.67
2018-11-22T11:27:31.126Z,996.60
2018-11-22T11:28:31.196Z,996.62
2018-11-22T11:29:31.288Z,996.60
2018-11-22T11:30:31.372Z,996.57
2018-11-22T11:31:31.465Z,996.62
2018-11-22T11:32:31.551Z,996.62
2018-11-22T11:33:31.638Z,996.62
2018-11-22T11:34:31.728Z,996.65
2018-11-22T11:35:31.817Z,996.63
2018-11-22T11:36:31.905Z,996.66
2018-11-22T11:37:31.993Z,996.67
2018-11-22T11:38:32.081Z,996.65
2018-11-22T11:39:32.170Z,996.68
2018-11-22T11:40:32.257Z,996.61
2018-11-22T11:41:32.354Z,996.63
2018-11-22T11:42:32.450Z,996.61
2018-11-22T11:43:32.527Z,996.57
2018-11-22T11:44:32.618Z,996.60
2018-11-22T11:45:32.706Z,996.56
2018-11-22T11:46:32.794Z,996.59
2018-11-22T11:47:32.909Z,996.55
2018-11-22T11:48:32.972Z,996.56
2018-11-22T11:51:04.568Z,996.58
2018-11-22T11:52:04.656Z,996.58
2018-11-22T11:53:04.744Z,996.58
2018-11-22T11:54:04.833Z,996.55
2018-11-22T11:55:04.925Z,996.55
2018-11-22T11:56:05.012Z,996.55
2018-11-22T11:57:05.098Z,996.51
2018-11-22T11:58:05.184Z,996.52
2018-11-22T11:59:05.257Z,996.49
2018-11-22T12:00:05.349Z,996.50
2018-11-22T12:01:05.437Z,996.51
2018-11-22T12:02:05.529Z,996.49
2018-11-22T12:03:05.617Z,996.42
2018-11-22T12:04:05.705Z,996.41
2018-11-22T12:05:05.794Z,996.44
2018-11-22T12:06:05.881Z,996.40
2018-11-22T12:07:05.973Z,996.47
2018-11-22T12:08:06.062Z,996.47
2018-11-22T12:09:06.149Z,996.46
2018-11-22T12:10:06.235Z,996.46
2018-11-22T12:11:06.344Z,996.43
2018-11-22T12:12:06.433Z,996.44
2018-11-22T12:13:06.524Z,996.46
2018-11-22T12:14:06.611Z,996.44
2018-11-22T12:15:06.698Z,996.45
2018-11-22T12:16:06.787Z,996.48
2018-11-22T12:17:06.930Z,996.45
2018-11-22T12:18:06.962Z,996.47
2018-11-22T12:19:07.050Z,996.40
2018-11-22T12:20:07.142Z,996.48
2018-11-22T12:21:07.229Z,996.45
2018-11-22T12:22:07.321Z,996.42
2018-11-22T12:23:07.408Z,996.46
2018-11-22T12:24:07.496Z,996.42
2018-11-22T12:25:07.585Z,996.46
2018-11-22T12:26:07.671Z,996.44
2018-11-22T12:27:07.760Z,996.44
2018-11-22T12:28:07.848Z,996.43
2018-11-22T12:29:07.936Z,996.42
2018-11-22T12:30:08.024Z,996.41
2018-11-22T12:31:08.108Z,996.42